createdAt,value
2022-11-23T00:01:53.316Z,65.78
2022-11-23T00:04:38.656Z,71.22
2022-11-23T00:07:24.245Z,66.80
2022-11-23T00:10:10.034Z,74.10
2022-11-23T00:12:55.675Z,66.15
2022-11-23T00:15:41.286Z,63.58
2022-11-23T00:18:26.665Z,69.13
2022-11-23T00:21:17.082Z,72.10
2022-11-23T00:24:02.776Z,64.85
2022-11-23T00:26:47.897Z,67.35
2022-11-23T00:29:33.670Z,73.38
2022-11-23T00:32:18.945Z,66.00
2022-11-23T00:35:04.635Z,67.72
2022-11-23T00:37:50.639Z,71.75
2022-11-23T00:40:35.556Z,65.63
2022-11-23T00:43:21.397Z,74.22
2022-11-23T00:46:10.180Z,71.57
2022-11-23T00:48:57.466Z,67.15
2022-11-23T00:51:43.904Z,69.93
2022-11-23T00:54:29.365Z,74.30
2022-11-23T00:57:14.522Z,69.05
2022-11-23T01:00:01.083Z,66.88
2022-11-23T01:02:46.290Z,67.80
2022-11-23T01:05:36.388Z,67.72
2022-11-23T01:08:21.497Z,72.70
2022-11-23T01:11:10.305Z,71.15
2022-11-23T01:13:55.800Z,68.93
2022-11-23T01:16:42.114Z,62.33
2022-11-23T01:19:28.568Z,65.15
2022-11-23T01:22:14.357Z,61.78
2022-11-23T01:25:00.986Z,72.30
2022-11-23T01:27:48.240Z,68.57
2022-11-23T01:30:34.492Z,68.60
2022-11-23T01:33:20.323Z,65.35
2022-11-23T01:36:18.750Z,62.35
2022-11-23T01:39:05.222Z,69.50
2022-11-23T01:41:50.318Z,64.50
2022-11-23T01:44:38.451Z,69.68
2022-11-23T01:47:23.709Z,65.10
2022-11-23T01:50:08.943Z,66.13
2022-11-23T01:52:54.702Z,62.55
2022-11-23T01:55:41.020Z,62.72
2022-11-23T01:58:29.332Z,60.83
2022-11-23T02:01:15.044Z,61.35
2022-11-23T02:04:01.667Z,56.03
2022-11-23T02:06:47.874Z,57.60
2022-11-23T02:09:35.293Z,62.45
2022-11-23T02:12:20.670Z,62.00
2022-11-23T02:15:06.290Z,62.83
2022-11-23T02:17:51.739Z,67.43
2022-11-23T02:20:37.293Z,64.95
2022-11-23T02:23:53.754Z,61.33
2022-11-23T02:26:39.168Z,55.28
2022-11-23T02:29:26.691Z,56.65
2022-11-23T02:32:11.906Z,59.90
2022-11-23T02:34:57.028Z,56.53
2022-11-23T02:37:43.164Z,62.85
2022-11-23T02:40:32.801Z,61.08
2022-11-23T02:43:18.234Z,59.85
2022-11-23T02:46:05.117Z,57.58
2022-11-23T02:48:50.378Z,57.72
2022-11-23T02:51:35.789Z,62.53
2022-11-23T02:54:21.371Z,56.42
2022-11-23T02:57:07.126Z,58.75
2022-11-23T02:59:52.593Z,64.45
2022-11-23T03:02:38.216Z,61.10
2022-11-23T03:05:23.317Z,56.90
2022-11-23T03:08:09.967Z,59.20
2022-11-23T03:10:56.372Z,61.30
2022-11-23T03:13:42.849Z,57.63
2022-11-23T03:16:27.982Z,56.50
2022-11-23T03:19:13.051Z,60.53
2022-11-23T03:21:58.422Z,61.55
2022-11-23T03:24:43.918Z,53.72
2022-11-23T03:27:34.868Z,52.95
2022-11-23T03:30:20.272Z,63.90
2022-11-23T03:33:06.849Z,62.42
2022-11-23T03:35:53.944Z,62.25
2022-11-23T03:38:43.254Z,59.05
2022-11-23T03:44:28.135Z,62.13
2022-11-23T03:47:13.469Z,54.72
2022-11-23T03:49:58.674Z,62.35
2022-11-23T03:52:43.988Z,55.53
2022-11-23T03:55:33.915Z,57.42
2022-11-23T03:58:20.192Z,57.92
2022-11-23T04:01:05.749Z,60.28
2022-11-23T04:03:51.205Z,55.47
2022-11-23T04:06:41.554Z,59.28
2022-11-23T04:09:37.359Z,61.97
2022-11-23T04:12:22.634Z,58.45
2022-11-23T04:15:08.575Z,56.72
2022-11-23T04:17:55.262Z,56.47
2022-11-23T04:20:40.465Z,61.50
2022-11-23T04:23:25.918Z,62.65
2022-11-23T04:26:12.798Z,54.88
2022-11-23T04:29:01.014Z,60.90
2022-11-23T04:31:47.731Z,55.05
2022-11-23T04:34:35.939Z,54.13
2022-11-23T04:37:22.929Z,55.72
2022-11-23T04:40:09.159Z,56.15
2022-11-23T04:43:01.881Z,57.90
2022-11-23T04:45:50.203Z,55.63
2022-11-23T04:48:42.177Z,57.15
2022-11-23T04:51:27.634Z,56.53
2022-11-23T04:54:13.448Z,58.42
2022-11-23T04:57:06.322Z,58.00
2022-11-23T04:59:52.536Z,58.92
2022-11-23T05:02:38.093Z,57.22
2022-11-23T05:05:42.922Z,55.78
2022-11-23T05:08:29.120Z,59.22
2022-11-23T05:11:40.675Z,60.30
2022-11-23T05:14:27.876Z,55.50
2022-11-23T05:17:13.043Z,55.78
2022-11-23T05:20:00.026Z,56.00
2022-11-23T05:22:47.124Z,53.47
2022-11-23T05:25:35.605Z,59.88
2022-11-23T05:28:39.577Z,50.13
2022-11-23T05:31:26.400Z,49.40
2022-11-23T05:34:11.655Z,57.50
2022-11-23T05:37:03.929Z,52.55
2022-11-23T05:39:49.238Z,52.03
2022-11-23T05:42:34.680Z,51.75
2022-11-23T05:45:28.689Z,52.08
2022-11-23T05:48:16.221Z,54.90
2022-11-23T05:51:14.464Z,57.10
2022-11-23T05:54:04.077Z,52.28
2022-11-23T05:56:56.668Z,54.80
2022-11-23T05:59:49.894Z,56.03
2022-11-23T06:02:41.214Z,49.90
2022-11-23T06:05:28.033Z,49.75
2022-11-23T06:08:13.069Z,51.45
2022-11-23T06:11:01.365Z,52.40
2022-11-23T06:13:48.565Z,55.25
2022-11-23T06:16:35.262Z,59.33
2022-11-23T06:19:32.715Z,56.08
2022-11-23T06:22:19.704Z,55.50
2022-11-23T06:25:20.264Z,52.03
2022-11-23T06:28:28.992Z,56.85
2022-11-23T06:31:16.083Z,50.25
2022-11-23T06:34:01.461Z,53.40
2022-11-23T06:36:49.940Z,47.03
2022-11-23T06:39:35.784Z,50.63
2022-11-23T06:42:38.337Z,50.05
2022-11-23T06:45:28.378Z,49.33
2022-11-23T06:48:17.045Z,51.00
2022-11-23T06:51:05.474Z,51.08
2022-11-23T06:53:50.746Z,51.08
2022-11-23T06:56:37.458Z,53.63
2022-11-23T06:59:22.894Z,47.67
2022-11-23T07:02:09.475Z,54.13
2022-11-23T07:04:55.090Z,54.80
2022-11-23T07:07:40.728Z,55.58
2022-11-23T07:10:33.027Z,54.30
2022-11-23T07:13:19.754Z,59.10
2022-11-23T07:16:06.110Z,53.45
2022-11-23T07:18:51.430Z,53.40
2022-11-23T07:21:36.809Z,52.00
2022-11-23T07:24:22.265Z,48.42
2022-11-23T07:27:07.463Z,52.95
2022-11-23T07:29:53.528Z,51.30
2022-11-23T07:32:39.001Z,53.63
2022-11-23T07:35:24.317Z,52.85
2022-11-23T07:38:10.389Z,53.92
2022-11-23T07:40:55.939Z,49.17
2022-11-23T07:44:00.266Z,51.47
2022-11-23T07:46:45.690Z,51.40
2022-11-23T07:49:31.326Z,46.63
2022-11-23T07:52:16.316Z,52.80
2022-11-23T07:55:01.842Z,51.65
2022-11-23T07:57:46.979Z,51.83
2022-11-23T08:00:32.505Z,51.20
2022-11-23T08:03:33.297Z,57.60
2022-11-23T08:06:18.631Z,53.08
2022-11-23T08:09:03.959Z,52.47
2022-11-23T08:11:49.360Z,53.35
2022-11-23T08:14:35.473Z,53.50
2022-11-23T08:17:21.066Z,51.33
2022-11-23T08:20:06.721Z,45.85
2022-11-23T08:22:52.710Z,53.53
2022-11-23T08:25:37.900Z,46.45
2022-11-23T08:28:23.470Z,55.10
2022-11-23T08:31:11.331Z,47.47
2022-11-23T08:34:00.288Z,47.95
2022-11-23T08:36:48.478Z,46.20
2022-11-23T08:39:33.674Z,52.83
2022-11-23T08:42:19.084Z,62.03
2022-11-23T08:45:05.568Z,47.70
2022-11-23T08:47:51.086Z,51.63
2022-11-23T08:50:37.070Z,49.58
2022-11-23T08:53:22.871Z,48.47
2022-11-23T08:56:08.451Z,46.95
2022-11-23T08:58:53.945Z,48.20
2022-11-23T09:01:39.725Z,50.67
2022-11-23T09:04:27.564Z,45.88
2022-11-23T09:07:13.229Z,46.63
2022-11-23T09:09:58.322Z,47.47
2022-11-23T09:12:43.883Z,49.05
2022-11-23T09:15:29.241Z,53.70
2022-11-23T09:18:15.044Z,44.55
2022-11-23T09:21:03.966Z,46.22
2022-11-23T09:23:49.398Z,46.75
2022-11-23T09:26:34.891Z,48.78
2022-11-23T09:29:20.167Z,40.65
2022-11-23T09:32:05.598Z,47.92
2022-11-23T09:34:50.805Z,42.65
2022-11-23T09:37:36.422Z,46.10
2022-11-23T09:40:21.538Z,42.50
2022-11-23T09:43:40.523Z,41.38
2022-11-23T09:46:37.035Z,40.72
2022-11-23T09:49:31.306Z,37.78
2022-11-23T09:52:20.990Z,39.50
2022-11-23T09:55:16.797Z,41.08
2022-11-23T09:58:05.362Z,44.20
2022-11-23T10:00:59.259Z,38.75
2022-11-23T10:03:49.129Z,40.17
2022-11-23T10:06:40.141Z,39.80
2022-11-23T10:09:46.146Z,40.13
2022-11-23T10:12:38.583Z,42.40
2022-11-23T10:15:30.893Z,38.55
2022-11-23T10:18:36.157Z,37.20
2022-11-23T10:21:39.784Z,40.42
2022-11-23T10:24:32.767Z,41.95
2022-11-23T10:27:21.413Z,40.40
2022-11-23T10:30:12.550Z,35.83
2022-11-23T10:33:13.713Z,36.83
2022-11-23T10:35:58.915Z,33.92
2022-11-23T10:38:45.235Z,32.58
2022-11-23T10:41:30.885Z,30.63
2022-11-23T10:44:34.567Z,35.80
2022-11-23T10:47:51.489Z,35.20
2022-11-23T10:50:40.749Z,41.70
2022-11-23T10:53:28.386Z,33.25
2022-11-23T10:56:14.432Z,35.70
2022-11-23T10:58:59.804Z,32.53
2022-11-23T11:02:00.593Z,33.38
2022-11-23T11:04:47.159Z,33.65
2022-11-23T11:07:36.842Z,35.50
2022-11-23T11:10:43.931Z,33.20
2022-11-23T11:13:46.233Z,41.80
2022-11-23T11:16:36.948Z,32.03
2022-11-23T11:19:35.821Z,34.85
2022-11-23T11:22:37.773Z,35.20
2022-11-23T11:25:42.259Z,40.72
2022-11-23T11:28:36.333Z,33.95
2022-11-23T11:31:39.213Z,36.53
2022-11-23T11:34:34.321Z,36.35
2022-11-23T11:37:38.835Z,37.20
2022-11-23T11:40:31.914Z,37.88
2022-11-23T11:43:34.688Z,39.58
2022-11-23T11:46:30.328Z,36.20
2022-11-23T11:49:23.355Z,36.03
2022-11-23T11:52:21.899Z,35.63
2022-11-23T11:55:36.314Z,32.85
2022-11-23T11:58:25.316Z,33.08
2022-11-23T12:01:28.898Z,31.95
2022-11-23T12:04:25.994Z,34.80
2022-11-23T12:07:17.797Z,39.60
2022-11-23T12:10:18.823Z,31.48
2022-11-23T12:13:04.214Z,34.42
2022-11-23T12:16:02.740Z,33.55
2022-11-23T12:18:51.340Z,30.25
2022-11-23T12:21:54.353Z,33.90
2022-11-23T12:24:59.333Z,32.53
2022-11-23T12:28:10.513Z,30.80
2022-11-23T12:31:13.735Z,35.75
2022-11-23T12:34:02.007Z,34.97
2022-11-23T12:37:08.935Z,32.95
2022-11-23T12:40:12.221Z,35.25
2022-11-23T12:43:01.451Z,32.70
2022-11-23T12:46:11.282Z,24.08
2022-11-23T12:49:21.284Z,31.50
2022-11-23T12:52:15.698Z,29.35
2022-11-23T12:55:19.466Z,30.40
2022-11-23T12:58:28.623Z,30.33
2022-11-23T13:01:39.925Z,34.65
2022-11-23T13:04:44.354Z,30.55
2022-11-23T13:08:11.964Z,29.35
2022-11-23T13:11:37.581Z,27.83
2022-11-23T13:14:35.715Z,31.98
2022-11-23T13:17:47.811Z,33.33
2022-11-23T13:20:49.757Z,29.30
2022-11-23T13:23:39.354Z,30.38
2022-11-23T13:26:29.593Z,30.65
2022-11-23T13:29:54.119Z,32.42
2022-11-23T13:32:39.797Z,28.55
2022-11-23T13:35:27.839Z,38.40
2022-11-23T13:38:16.170Z,37.20
2022-11-23T13:41:01.498Z,30.58
2022-11-23T13:43:46.913Z,34.20
2022-11-23T13:46:33.347Z,30.02
2022-11-23T13:49:45.252Z,37.08
2022-11-23T13:52:31.617Z,36.05
2022-11-23T13:55:27.722Z,35.38
2022-11-23T13:58:24.874Z,32.08
2022-11-23T14:01:10.769Z,34.85
2022-11-23T14:03:56.109Z,37.88
2022-11-23T14:06:47.875Z,32.70
2022-11-23T14:09:44.144Z,36.83
2022-11-23T14:12:52.070Z,30.08
2022-11-23T14:15:40.860Z,29.25
2022-11-23T14:18:52.251Z,29.33
2022-11-23T14:21:50.995Z,37.53
2022-11-23T14:25:02.428Z,31.53
2022-11-23T14:27:58.920Z,28.58
2022-11-23T14:30:54.885Z,29.60
2022-11-23T14:34:01.548Z,29.27
2022-11-23T14:37:07.264Z,35.28
2022-11-23T14:39:58.689Z,30.30
2022-11-23T14:42:51.033Z,37.75
2022-11-23T14:45:36.909Z,31.05
2022-11-23T14:48:30.960Z,29.98
2022-11-23T14:51:22.942Z,29.88
2022-11-23T14:54:09.965Z,27.92
2022-11-23T14:56:59.476Z,30.23
2022-11-23T14:59:48.973Z,31.45
2022-11-23T15:02:37.643Z,31.75
2022-11-23T15:05:29.961Z,31.10
2022-11-23T15:08:30.136Z,28.98
2022-11-23T15:11:21.415Z,32.65
2022-11-23T15:14:25.177Z,33.13
2022-11-23T15:17:15.853Z,30.65
2022-11-23T15:20:02.123Z,27.60
2022-11-23T15:22:47.418Z,37.50
2022-11-23T15:25:33.186Z,31.13
2022-11-23T15:28:23.495Z,31.98
2022-11-23T15:31:35.518Z,30.50
2022-11-23T15:34:21.257Z,30.75
2022-11-23T15:37:10.105Z,32.45
2022-11-23T15:39:57.105Z,34.35
2022-11-23T15:42:45.062Z,32.10
2022-11-23T15:45:35.476Z,31.20
2022-11-23T15:48:29.273Z,29.58
2022-11-23T15:51:30.374Z,31.55
2022-11-23T15:54:21.082Z,36.03
2022-11-23T15:57:21.732Z,27.75
2022-11-23T16:00:09.451Z,32.88
2022-11-23T16:03:20.984Z,31.85
2022-11-23T16:06:12.524Z,27.47
2022-11-23T16:08:58.323Z,30.20
2022-11-23T16:11:51.937Z,31.95
2022-11-23T16:14:37.899Z,25.25
2022-11-23T16:17:26.222Z,31.60
2022-11-23T16:20:15.052Z,39.85
2022-11-23T16:23:00.946Z,28.08
2022-11-23T16:25:53.803Z,32.15
2022-11-23T16:28:48.260Z,30.92
2022-11-23T16:31:38.212Z,35.28
2022-11-23T16:34:24.315Z,26.05
2022-11-23T16:37:09.966Z,33.25
2022-11-23T16:39:55.081Z,31.08
2022-11-23T16:42:41.140Z,32.85
2022-11-23T16:45:27.341Z,32.45
2022-11-23T16:48:28.029Z,39.50
2022-11-23T16:51:14.620Z,30.88
2022-11-23T16:54:20.358Z,34.28
2022-11-23T16:57:05.794Z,32.90
2022-11-23T16:59:51.073Z,31.60
2022-11-23T17:02:36.615Z,36.22
2022-11-23T17:05:24.046Z,35.03
2022-11-23T17:08:09.862Z,32.72
2022-11-23T17:10:56.045Z,37.38
2022-11-23T17:13:42.345Z,34.83
2022-11-23T17:16:27.789Z,40.65
2022-11-23T17:19:17.826Z,45.85
2022-11-23T17:22:03.559Z,44.60
2022-11-23T17:24:50.038Z,37.55
2022-11-23T17:27:37.665Z,45.95
2022-11-23T17:30:22.872Z,44.30
2022-11-23T17:33:12.151Z,43.80
2022-11-23T17:35:59.831Z,43.08
2022-11-23T17:38:47.160Z,44.30
2022-11-23T17:41:32.588Z,45.75
2022-11-23T17:44:18.165Z,41.17
2022-11-23T17:47:03.845Z,41.08
2022-11-23T17:49:49.021Z,41.22
2022-11-23T17:52:34.452Z,44.60
2022-11-23T17:55:19.771Z,47.92
2022-11-23T17:58:05.758Z,43.53
2022-11-23T18:00:51.159Z,45.00
2022-11-23T18:03:36.701Z,49.03
2022-11-23T18:06:23.894Z,44.80
2022-11-23T18:09:11.659Z,46.80
2022-11-23T18:11:57.145Z,45.78
2022-11-23T18:14:42.287Z,52.00
2022-11-23T18:17:27.640Z,49.80
2022-11-23T18:20:13.292Z,49.30
2022-11-23T18:22:58.360Z,42.50
2022-11-23T18:25:45.580Z,49.13
2022-11-23T18:28:31.194Z,49.55
2022-11-23T18:31:16.751Z,49.50
2022-11-23T18:34:05.401Z,48.03
2022-11-23T18:36:50.788Z,48.53
2022-11-23T18:39:36.131Z,49.53
2022-11-23T18:42:21.520Z,48.63
2022-11-23T18:45:08.641Z,54.53
2022-11-23T18:47:54.285Z,46.55
2022-11-23T18:50:40.228Z,43.92
2022-11-23T18:53:25.435Z,51.60
2022-11-23T18:56:10.912Z,49.22
2022-11-23T18:58:56.278Z,48.15
2022-11-23T19:01:41.835Z,55.55
2022-11-23T19:04:27.017Z,52.85
2022-11-23T19:07:12.376Z,54.92
2022-11-23T19:09:57.697Z,55.22
2022-11-23T19:12:43.673Z,59.85
2022-11-23T19:15:29.361Z,51.78
2022-11-23T19:18:14.524Z,53.78
2022-11-23T19:20:59.844Z,54.78
2022-11-23T19:23:49.119Z,59.85
2022-11-23T19:26:34.718Z,54.08
2022-11-23T19:29:23.751Z,56.78
2022-11-23T19:32:10.092Z,59.33
2022-11-23T19:34:55.372Z,52.35
2022-11-23T19:37:40.804Z,55.35
2022-11-23T19:40:26.470Z,57.10
2022-11-23T19:43:11.784Z,54.45
2022-11-23T19:45:58.787Z,57.15
2022-11-23T19:48:44.105Z,57.42
2022-11-23T19:51:29.324Z,54.85
2022-11-23T19:54:14.537Z,63.65
2022-11-23T19:56:59.648Z,58.28
2022-11-23T19:59:45.929Z,59.83
2022-11-23T20:02:31.106Z,63.50
2022-11-23T20:05:16.600Z,65.28
2022-11-23T20:08:01.859Z,62.00
2022-11-23T20:10:47.108Z,68.45
2022-11-23T20:13:33.269Z,59.97
2022-11-23T20:16:19.964Z,65.30
2022-11-23T20:19:07.460Z,59.50
2022-11-23T20:21:53.295Z,60.33
2022-11-23T20:24:38.403Z,64.80
2022-11-23T20:27:23.440Z,67.68
2022-11-23T20:30:09.047Z,69.53
2022-11-23T20:32:54.366Z,61.15
2022-11-23T20:35:40.560Z,63.47
2022-11-23T20:38:25.595Z,63.03
2022-11-23T20:41:34.131Z,64.22
2022-11-23T20:44:20.820Z,64.15
2022-11-23T20:47:06.320Z,62.10
2022-11-23T20:49:51.534Z,63.53
2022-11-23T20:52:37.053Z,67.18
2022-11-23T20:55:25.377Z,69.45
2022-11-23T20:58:10.802Z,67.03
2022-11-23T21:00:56.586Z,62.00
2022-11-23T21:03:43.213Z,62.42
2022-11-23T21:06:28.692Z,63.22
2022-11-23T21:09:13.951Z,61.60
2022-11-23T21:12:17.483Z,65.78
2022-11-23T21:15:02.754Z,67.40
2022-11-23T21:17:47.774Z,68.05
2022-11-23T21:20:36.581Z,64.47
2022-11-23T21:23:22.103Z,61.55
2022-11-23T21:26:07.496Z,62.10
2022-11-23T21:28:53.341Z,71.13
2022-11-23T21:31:41.116Z,66.68
2022-11-23T21:34:28.176Z,67.00
2022-11-23T21:37:13.688Z,65.97
2022-11-23T21:39:59.004Z,70.78
2022-11-23T21:42:44.697Z,65.53
2022-11-23T21:45:30.886Z,72.10
2022-11-23T21:48:16.071Z,64.78
2022-11-23T21:51:07.738Z,71.13
2022-11-23T21:53:54.085Z,65.93
2022-11-23T21:56:39.364Z,69.70
2022-11-23T21:59:24.713Z,68.57
2022-11-23T22:02:12.126Z,67.88
2022-11-23T22:04:57.726Z,63.58
2022-11-23T22:07:55.140Z,74.47
2022-11-23T22:10:48.130Z,62.33
2022-11-23T22:13:36.889Z,73.80
2022-11-23T22:16:25.235Z,71.17
2022-11-23T22:19:12.081Z,64.20
2022-11-23T22:21:57.482Z,70.05
2022-11-23T22:24:42.611Z,68.82
2022-11-23T22:27:27.967Z,64.88
2022-11-23T22:30:13.541Z,73.53
2022-11-23T22:32:59.028Z,70.80
2022-11-23T22:35:44.292Z,72.93
2022-11-23T22:38:32.257Z,71.13
2022-11-23T22:41:17.729Z,69.38
2022-11-23T22:44:04.851Z,77.47
2022-11-23T22:46:50.294Z,76.72
2022-11-23T22:49:35.437Z,80.55
2022-11-23T22:52:24.913Z,78.80
2022-11-23T22:55:10.435Z,79.82
2022-11-23T22:57:55.804Z,86.45
2022-11-23T23:00:41.216Z,82.05
2022-11-23T23:03:26.532Z,84.93
2022-11-23T23:06:20.437Z,83.97
2022-11-23T23:09:07.874Z,82.35
2022-11-23T23:11:53.291Z,85.82
2022-11-23T23:14:38.426Z,87.57
2022-11-23T23:17:24.072Z,95.55
2022-11-23T23:20:09.772Z,90.50
2022-11-23T23:22:55.191Z,83.82
2022-11-23T23:25:40.432Z,87.57
2022-11-23T23:28:25.815Z,82.75
2022-11-23T23:31:14.200Z,87.25
2022-11-23T23:33:59.918Z,94.15
2022-11-23T23:36:45.171Z,90.40
2022-11-23T23:39:30.720Z,91.63
2022-11-23T23:42:15.982Z,86.07
2022-11-23T23:45:02.830Z,89.38
2022-11-23T23:47:48.230Z,76.55
2022-11-23T23:50:33.438Z,93.65
2022-11-23T23:53:18.893Z,83.57
2022-11-23T23:56:07.495Z,85.80
2022-11-23T23:58:56.568Z,90.07
